Terminal Aerodrome Forecast
Issued by NWS

Home | Current Version | Previous Version | Text Only | Print | Product List | Glossary On
Versions: 1 2 3 4 5 6 7 8 9 10 11 12 13 14 15 16 17 18 19 20 21 22 23 24 25 26 27 28 29 30 31 32 33 34 35 36 37 38 39 40
000
FTUS45 KBOU 170529
TAFBJC
TAF
KBJC 170529Z 1706/1806 32005KT P6SM FEW070 SCT150
     FM171500 VRB04KT P6SM SCT070 OVC140
     FM171800 02006KT P6SM VCSH SCT050 BKN070 OVC100 PROB30
      1719/1722 -SHSN BKN040 OVC060
     FM172200 05007KT 5SM -SHSN BKN035 OVC050
      TEMPO 1722/1802 2SM -SN BR OVC020
     FM180200 02006KT 5SM -SN BR SCT025 OVC040 PROB30 1802/1806 3SM
      -SN BR BKN025=

USA.gov is the U.S. government's official web portal to all federal, state and local government web resources and services.